sensor_id;sensor_type;location;lat;lon;timestamp;P1;durP1;ratioP1;P2;durP2;ratioP2
48795;SDS011;34607;48.520;-1.330;2022-07-21T17:25:53;7.00;;;3.22;;
48795;SDS011;34607;48.520;-1.330;2022-07-21T17:28:20;6.30;;;3.40;;
48795;SDS011;34607;48.520;-1.330;2022-07-21T17:30:47;6.00;;;2.88;;
48795;SDS011;34607;48.520;-1.330;2022-07-21T17:33:15;3.55;;;2.67;;
48795;SDS011;34607;48.520;-1.330;2022-07-21T17:35:42;5.80;;;3.72;;
48795;SDS011;34607;48.520;-1.330;2022-07-21T17:38:09;4.32;;;2.63;;
48795;SDS011;34607;48.520;-1.330;2022-07-21T17:40:36;7.47;;;2.65;;
48795;SDS011;34607;48.520;-1.330;2022-07-21T17:43:04;6.25;;;3.25;;
48795;SDS011;34607;48.520;-1.330;2022-07-21T17:45:31;6.13;;;3.20;;
48795;SDS011;34607;48.520;-1.330;2022-07-21T17:47:58;5.15;;;2.85;;
48795;SDS011;34607;48.520;-1.330;2022-07-21T17:50:26;5.03;;;2.67;;
48795;SDS011;34607;48.520;-1.330;2022-07-21T17:52:53;6.32;;;3.05;;
48795;SDS011;34607;48.520;-1.330;2022-07-21T17:55:20;5.50;;;3.20;;
48795;SDS011;34607;48.520;-1.330;2022-07-21T17:57:47;4.20;;;2.83;;
48795;SDS011;34607;48.520;-1.330;2022-07-21T18:00:33;6.88;;;3.20;;
48795;SDS011;34607;48.520;-1.330;2022-07-21T18:03:00;5.25;;;2.88;;
48795;SDS011;34607;48.520;-1.330;2022-07-21T18:05:28;3.80;;;3.10;;
48795;SDS011;34607;48.520;-1.330;2022-07-21T18:07:55;3.63;;;2.60;;
48795;SDS011;34607;48.520;-1.330;2022-07-21T18:10:22;3.75;;;3.22;;
48795;SDS011;34607;48.520;-1.330;2022-07-21T18:12:49;6.70;;;3.35;;
48795;SDS011;34607;48.520;-1.330;2022-07-21T18:15:16;5.65;;;3.33;;
48795;SDS011;34607;48.520;-1.330;2022-07-21T18:17:45;4.45;;;3.00;;
48795;SDS011;34607;48.520;-1.330;2022-07-21T18:20:12;4.75;;;3.00;;
48795;SDS011;34607;48.520;-1.330;2022-07-21T18:22:39;5.63;;;3.80;;
48795;SDS011;34607;48.520;-1.330;2022-07-21T18:25:07;5.30;;;2.78;;
48795;SDS011;34607;48.520;-1.330;2022-07-21T18:27:35;5.90;;;4.07;;
48795;SDS011;34607;48.520;-1.330;2022-07-21T18:30:02;5.28;;;3.90;;
48795;SDS011;34607;48.520;-1.330;2022-07-21T18:32:30;6.68;;;3.60;;
48795;SDS011;34607;48.520;-1.330;2022-07-21T18:34:58;5.60;;;3.05;;
48795;SDS011;34607;48.520;-1.330;2022-07-21T18:37:25;6.07;;;3.03;;
48795;SDS011;34607;48.520;-1.330;2022-07-21T18:39:53;6.05;;;3.22;;
48795;SDS011;34607;48.520;-1.330;2022-07-21T18:42:20;5.25;;;3.08;;
48795;SDS011;34607;48.520;-1.330;2022-07-21T18:44:47;6.47;;;3.05;;
48795;SDS011;34607;48.520;-1.330;2022-07-21T18:47:14;5.65;;;3.03;;
48795;SDS011;34607;48.520;-1.330;2022-07-21T18:49:41;4.75;;;3.20;;
48795;SDS011;34607;48.520;-1.330;2022-07-21T18:52:09;5.88;;;3.70;;
48795;SDS011;34607;48.520;-1.330;2022-07-21T18:54:36;5.65;;;3.33;;
48795;SDS011;34607;48.520;-1.330;2022-07-21T18:57:04;5.93;;;3.38;;
48795;SDS011;34607;48.520;-1.330;2022-07-21T18:59:31;6.78;;;4.50;;
48795;SDS011;34607;48.520;-1.330;2022-07-21T19:01:58;5.28;;;3.35;;
48795;SDS011;34607;48.520;-1.330;2022-07-21T19:04:25;6.13;;;3.72;;
48795;SDS011;34607;48.520;-1.330;2022-07-21T19:06:52;7.25;;;3.92;;
48795;SDS011;34607;48.520;-1.330;2022-07-21T19:09:21;7.43;;;3.65;;
48795;SDS011;34607;48.520;-1.330;2022-07-21T19:11:48;5.57;;;3.63;;
48795;SDS011;34607;48.520;-1.330;2022-07-21T19:14:15;6.28;;;3.90;;
48795;SDS011;34607;48.520;-1.330;2022-07-21T19:16:42;7.05;;;4.22;;
48795;SDS011;34607;48.520;-1.330;2022-07-21T19:19:09;5.40;;;3.80;;
48795;SDS011;34607;48.520;-1.330;2022-07-21T19:21:36;5.18;;;3.75;;
48795;SDS011;34607;48.520;-1.330;2022-07-21T19:24:04;7.25;;;3.42;;
48795;SDS011;34607;48.520;-1.330;2022-07-21T19:26:32;4.40;;;4.00;;
48795;SDS011;34607;48.520;-1.330;2022-07-21T19:28:59;5.60;;;4.03;;
48795;SDS011;34607;48.520;-1.330;2022-07-21T19:31:28;5.65;;;3.40;;
48795;SDS011;34607;48.520;-1.330;2022-07-21T19:33:55;6.80;;;4.85;;
48795;SDS011;34607;48.520;-1.330;2022-07-21T19:36:22;5.25;;;3.45;;
48795;SDS011;34607;48.520;-1.330;2022-07-21T19:38:49;6.10;;;3.60;;
48795;SDS011;34607;48.520;-1.330;2022-07-21T19:41:16;7.53;;;3.70;;
48795;SDS011;34607;48.520;-1.330;2022-07-21T19:43:45;8.60;;;4.05;;
48795;SDS011;34607;48.520;-1.330;2022-07-21T19:46:13;4.95;;;3.85;;
48795;SDS011;34607;48.520;-1.330;2022-07-21T19:48:40;5.90;;;3.65;;
48795;SDS011;34607;48.520;-1.330;2022-07-21T19:51:07;7.22;;;3.80;;
48795;SDS011;34607;48.520;-1.330;2022-07-21T19:53:34;6.53;;;3.92;;
48795;SDS011;34607;48.520;-1.330;2022-07-21T19:56:02;6.18;;;3.88;;
48795;SDS011;34607;48.520;-1.330;2022-07-21T19:58:30;5.85;;;3.63;;
48795;SDS011;34607;48.520;-1.330;2022-07-21T20:00:59;5.32;;;3.05;;
48795;SDS011;34607;48.520;-1.330;2022-07-21T20:03:26;7.20;;;3.97;;
48795;SDS011;34607;48.520;-1.330;2022-07-21T20:05:53;4.28;;;3.75;;
48795;SDS011;34607;48.520;-1.330;2022-07-21T20:08:20;4.82;;;3.53;;
48795;SDS011;34607;48.520;-1.330;2022-07-21T20:10:47;6.40;;;3.95;;
48795;SDS011;34607;48.520;-1.330;2022-07-21T20:13:15;6.35;;;3.85;;
48795;SDS011;34607;48.520;-1.330;2022-07-21T20:15:42;9.55;;;4.00;;
48795;SDS011;34607;48.520;-1.330;2022-07-21T20:18:11;5.25;;;4.18;;
48795;SDS011;34607;48.520;-1.330;2022-07-21T20:20:38;4.85;;;3.78;;
48795;SDS011;34607;48.520;-1.330;2022-07-21T20:23:05;5.57;;;3.83;;
48795;SDS011;34607;48.520;-1.330;2022-07-21T20:25:33;4.97;;;4.35;;
48795;SDS011;34607;48.520;-1.330;2022-07-21T20:28:00;4.88;;;3.55;;
48795;SDS011;34607;48.520;-1.330;2022-07-21T20:30:27;4.72;;;4.20;;
48795;SDS011;34607;48.520;-1.330;2022-07-21T20:32:56;6.72;;;3.50;;
48795;SDS011;34607;48.520;-1.330;2022-07-21T20:35:24;6.68;;;4.50;;
48795;SDS011;34607;48.520;-1.330;2022-07-21T20:37:52;8.52;;;4.38;;
48795;SDS011;34607;48.520;-1.330;2022-07-21T20:40:20;7.53;;;4.07;;
48795;SDS011;34607;48.520;-1.330;2022-07-21T20:42:48;6.25;;;4.32;;
48795;SDS011;34607;48.520;-1.330;2022-07-21T20:45:16;7.28;;;4.00;;
48795;SDS011;34607;48.520;-1.330;2022-07-21T20:47:43;8.75;;;3.60;;
48795;SDS011;34607;48.520;-1.330;2022-07-21T20:50:11;4.65;;;4.03;;
48795;SDS011;34607;48.520;-1.330;2022-07-21T20:52:40;5.88;;;4.28;;
48795;SDS011;34607;48.520;-1.330;2022-07-21T20:55:07;5.60;;;3.50;;
48795;SDS011;34607;48.520;-1.330;2022-07-21T20:57:36;5.43;;;4.20;;
48795;SDS011;34607;48.520;-1.330;2022-07-21T21:00:03;6.43;;;4.38;;
48795;SDS011;34607;48.520;-1.330;2022-07-21T21:02:32;6.38;;;3.97;;
48795;SDS011;34607;48.520;-1.330;2022-07-21T21:04:59;6.50;;;4.70;;
48795;SDS011;34607;48.520;-1.330;2022-07-21T21:07:26;5.60;;;4.15;;
48795;SDS011;34607;48.520;-1.330;2022-07-21T21:09:55;4.85;;;4.35;;
48795;SDS011;34607;48.520;-1.330;2022-07-21T21:12:22;4.95;;;3.92;;
48795;SDS011;34607;48.520;-1.330;2022-07-21T21:14:49;5.80;;;3.90;;
48795;SDS011;34607;48.520;-1.330;2022-07-21T21:17:17;7.65;;;5.05;;
48795;SDS011;34607;48.520;-1.330;2022-07-21T21:19:44;7.20;;;4.45;;
48795;SDS011;34607;48.520;-1.330;2022-07-21T21:22:11;6.15;;;4.00;;
48795;SDS011;34607;48.520;-1.330;2022-07-21T21:24:38;4.90;;;4.20;;
48795;SDS011;34607;48.520;-1.330;2022-07-21T21:27:06;5.18;;;4.20;;
48795;SDS011;34607;48.520;-1.330;2022-07-21T21:29:34;8.07;;;4.55;;
48795;SDS011;34607;48.520;-1.330;2022-07-21T21:32:01;4.93;;;4.43;;
48795;SDS011;34607;48.520;-1.330;2022-07-21T21:34:28;4.90;;;4.30;;
48795;SDS011;34607;48.520;-1.330;2022-07-21T21:36:55;9.70;;;3.97;;
48795;SDS011;34607;48.520;-1.330;2022-07-21T21:39:22;5.25;;;4.75;;
48795;SDS011;34607;48.520;-1.330;2022-07-21T21:41:50;6.00;;;4.88;;
48795;SDS011;34607;48.520;-1.330;2022-07-21T21:44:18;8.95;;;4.95;;
48795;SDS011;34607;48.520;-1.330;2022-07-21T21:46:45;9.05;;;5.13;;
48795;SDS011;34607;48.520;-1.330;2022-07-21T21:49:13;7.63;;;5.72;;
48795;SDS011;34607;48.520;-1.330;2022-07-21T21:51:40;5.65;;;4.30;;
48795;SDS011;34607;48.520;-1.330;2022-07-21T21:54:07;5.60;;;4.50;;
48795;SDS011;34607;48.520;-1.330;2022-07-21T21:56:34;5.93;;;4.65;;
48795;SDS011;34607;48.520;-1.330;2022-07-21T21:59:01;6.15;;;4.30;;
48795;SDS011;34607;48.520;-1.330;2022-07-21T22:01:30;5.90;;;4.60;;
48795;SDS011;34607;48.520;-1.330;2022-07-21T22:03:57;5.45;;;4.85;;
48795;SDS011;34607;48.520;-1.330;2022-07-21T22:06:24;8.93;;;4.85;;
48795;SDS011;34607;48.520;-1.330;2022-07-21T22:08:51;4.97;;;4.55;;
48795;SDS011;34607;48.520;-1.330;2022-07-21T22:11:18;6.43;;;4.93;;
48795;SDS011;34607;48.520;-1.330;2022-07-21T22:13:45;6.75;;;5.15;;
48795;SDS011;34607;48.520;-1.330;2022-07-21T22:16:13;6.55;;;5.70;;
48795;SDS011;34607;48.520;-1.330;2022-07-21T22:18:41;7.78;;;5.55;;
48795;SDS011;34607;48.520;-1.330;2022-07-21T22:21:09;7.57;;;5.25;;
48795;SDS011;34607;48.520;-1.330;2022-07-21T22:23:36;10.43;;;5.57;;
48795;SDS011;34607;48.520;-1.330;2022-07-21T22:26:03;6.93;;;5.70;;
48795;SDS011;34607;48.520;-1.330;2022-07-21T22:28:32;6.28;;;5.68;;
48795;SDS011;34607;48.520;-1.330;2022-07-21T22:30:59;7.57;;;5.43;;
48795;SDS011;34607;48.520;-1.330;2022-07-21T22:33:26;7.65;;;5.15;;
48795;SDS011;34607;48.520;-1.330;2022-07-21T22:35:54;7.43;;;5.78;;
48795;SDS011;34607;48.520;-1.330;2022-07-21T22:38:21;5.70;;;5.05;;
48795;SDS011;34607;48.520;-1.330;2022-07-21T22:40:48;6.75;;;5.43;;
48795;SDS011;34607;48.520;-1.330;2022-07-21T22:43:16;6.47;;;5.20;;
48795;SDS011;34607;48.520;-1.330;2022-07-21T22:45:43;6.50;;;5.78;;
48795;SDS011;34607;48.520;-1.330;2022-07-21T22:48:10;10.57;;;5.95;;
48795;SDS011;34607;48.520;-1.330;2022-07-21T22:50:37;6.78;;;5.70;;
48795;SDS011;34607;48.520;-1.330;2022-07-21T22:53:05;7.60;;;5.95;;
48795;SDS011;34607;48.520;-1.330;2022-07-21T22:55:32;9.13;;;4.90;;
48795;SDS011;34607;48.520;-1.330;2022-07-21T22:58:00;7.07;;;5.75;;
48795;SDS011;34607;48.520;-1.330;2022-07-21T23:00:27;5.97;;;5.30;;
48795;SDS011;34607;48.520;-1.330;2022-07-21T23:02:54;6.22;;;5.63;;
48795;SDS011;34607;48.520;-1.330;2022-07-21T23:05:22;7.75;;;5.68;;
48795;SDS011;34607;48.520;-1.330;2022-07-21T23:07:51;7.53;;;5.93;;
48795;SDS011;34607;48.520;-1.330;2022-07-21T23:10:20;8.27;;;5.80;;
48795;SDS011;34607;48.520;-1.330;2022-07-21T23:12:47;7.15;;;5.95;;
48795;SDS011;34607;48.520;-1.330;2022-07-21T23:15:14;7.43;;;5.93;;
48795;SDS011;34607;48.520;-1.330;2022-07-21T23:17:41;7.90;;;5.68;;
48795;SDS011;34607;48.520;-1.330;2022-07-21T23:20:09;8.27;;;6.30;;
48795;SDS011;34607;48.520;-1.330;2022-07-21T23:22:37;9.05;;;5.65;;
48795;SDS011;34607;48.520;-1.330;2022-07-21T23:25:05;7.25;;;5.93;;
48795;SDS011;34607;48.520;-1.330;2022-07-21T23:27:34;8.77;;;6.00;;
48795;SDS011;34607;48.520;-1.330;2022-07-21T23:30:02;9.07;;;5.90;;
48795;SDS011;34607;48.520;-1.330;2022-07-21T23:32:29;9.38;;;5.97;;
48795;SDS011;34607;48.520;-1.330;2022-07-21T23:34:56;7.10;;;5.07;;
48795;SDS011;34607;48.520;-1.330;2022-07-21T23:37:23;9.38;;;6.40;;
48795;SDS011;34607;48.520;-1.330;2022-07-21T23:39:50;8.75;;;6.15;;
48795;SDS011;34607;48.520;-1.330;2022-07-21T23:42:18;9.60;;;6.32;;
48795;SDS011;34607;48.520;-1.330;2022-07-21T23:44:46;9.10;;;6.38;;
48795;SDS011;34607;48.520;-1.330;2022-07-21T23:47:13;6.78;;;6.07;;
48795;SDS011;34607;48.520;-1.330;2022-07-21T23:49:41;11.48;;;7.07;;
48795;SDS011;34607;48.520;-1.330;2022-07-21T23:52:08;9.82;;;6.95;;
48795;SDS011;34607;48.520;-1.330;2022-07-21T23:54:35;9.23;;;6.22;;
48795;SDS011;34607;48.520;-1.330;2022-07-21T23:57:02;18.73;;;7.50;;
48795;SDS011;34607;48.520;-1.330;2022-07-21T23:59:30;9.23;;;6.78;;
